createdAt,value
2019-04-01T00:02:17.938Z,38.23
2019-04-01T00:04:50.004Z,37.38
2019-04-01T00:07:22.281Z,36.20
2019-04-01T00:09:54.433Z,40.05
2019-04-01T00:12:27.642Z,37.70
2019-04-01T00:14:59.833Z,29.60
2019-04-01T00:17:32.130Z,28.77
2019-04-01T00:20:04.487Z,55.85
2019-04-01T00:22:36.841Z,37.20
2019-04-01T00:25:09.137Z,37.65
2019-04-01T00:27:41.596Z,29.30
2019-04-01T00:30:13.800Z,30.52
2019-04-01T00:32:46.101Z,28.03
2019-04-01T00:35:18.162Z,29.40
2019-04-01T00:37:50.331Z,29.65
2019-04-01T00:40:22.540Z,31.73
2019-04-01T00:42:55.896Z,31.07
2019-04-01T00:45:29.530Z,33.18
2019-04-01T00:48:01.832Z,33.50
2019-04-01T00:50:34.095Z,30.93
2019-04-01T00:53:06.299Z,34.23
2019-04-01T00:55:38.395Z,34.73
2019-04-01T00:58:10.662Z,33.08
2019-04-01T01:00:43.252Z,29.27
2019-04-01T01:03:15.520Z,30.20
2019-04-01T01:05:47.754Z,29.35
2019-04-01T01:08:19.925Z,32.08
2019-04-01T01:10:51.989Z,37.60
2019-04-01T01:13:24.249Z,28.25
2019-04-01T01:15:56.345Z,32.83
2019-04-01T01:18:28.627Z,33.33
2019-04-01T01:21:00.999Z,41.55
2019-04-01T01:23:33.351Z,36.00
2019-04-01T01:26:05.606Z,39.08
2019-04-01T01:28:39.338Z,36.95
2019-04-01T01:31:11.795Z,36.13
2019-04-01T01:33:44.103Z,38.53
2019-04-01T01:36:16.355Z,37.17
2019-04-01T01:38:48.662Z,41.83
2019-04-01T01:41:20.803Z,47.88
2019-04-01T01:43:52.956Z,38.63
2019-04-01T01:46:25.278Z,45.60
2019-04-01T01:48:57.534Z,41.80
2019-04-01T01:51:29.836Z,36.65
2019-04-01T01:54:02.151Z,34.83
2019-04-01T01:56:34.297Z,32.75
2019-04-01T01:59:07.473Z,36.20
2019-04-01T02:01:40.140Z,32.05
2019-04-01T02:04:12.212Z,37.33
2019-04-01T02:06:44.465Z,33.70
2019-04-01T02:09:16.751Z,32.50
2019-04-01T02:11:48.999Z,33.15
2019-04-01T02:14:22.204Z,31.83
2019-04-01T02:16:54.714Z,31.48
2019-04-01T02:19:27.120Z,32.80
2019-04-01T02:21:59.765Z,28.27
2019-04-01T02:24:32.201Z,28.17
2019-04-01T02:27:05.636Z,29.70
2019-04-01T02:29:38.155Z,34.33
2019-04-01T02:32:10.386Z,31.85
2019-04-01T02:34:42.615Z,33.15
2019-04-01T02:37:14.679Z,31.50
2019-04-01T02:39:46.868Z,31.90
2019-04-01T02:42:19.229Z,34.55
2019-04-01T02:44:51.316Z,34.27
2019-04-01T02:47:23.463Z,32.05
2019-04-01T02:49:55.773Z,32.75
2019-04-01T02:52:27.930Z,32.53
2019-04-01T02:55:00.581Z,35.87
2019-04-01T02:57:33.452Z,32.08
2019-04-01T03:00:06.610Z,32.88
2019-04-01T03:02:38.816Z,31.45
2019-04-01T03:05:10.992Z,28.57
2019-04-01T03:07:43.277Z,29.35
2019-04-01T03:10:16.667Z,26.27
2019-04-01T03:12:48.929Z,35.88
2019-04-01T03:15:21.425Z,29.75
2019-04-01T03:17:53.663Z,25.77
2019-04-01T03:20:25.897Z,25.50
2019-04-01T03:22:58.137Z,25.40
2019-04-01T03:25:30.309Z,30.00
2019-04-01T03:28:02.460Z,27.30
2019-04-01T03:30:35.018Z,30.62
2019-04-01T03:33:07.519Z,27.65
2019-04-01T03:35:39.590Z,28.45
2019-04-01T03:38:12.108Z,33.53
2019-04-01T03:40:44.826Z,27.20
2019-04-01T03:43:17.317Z,43.50
2019-04-01T03:45:49.641Z,28.33
2019-04-01T03:48:21.903Z,23.47
2019-04-01T03:50:53.952Z,23.45
2019-04-01T03:53:27.171Z,28.20
2019-04-01T03:55:59.434Z,22.95
2019-04-01T03:58:31.684Z,20.50
2019-04-01T04:01:03.852Z,22.23
2019-04-01T04:03:36.121Z,24.85
2019-04-01T04:06:08.418Z,20.50
2019-04-01T04:08:40.593Z,20.53
2019-04-01T04:11:12.985Z,28.57
2019-04-01T04:13:45.242Z,24.25
2019-04-01T04:16:17.534Z,21.95
2019-04-01T04:18:49.589Z,21.27
2019-04-01T04:21:23.890Z,20.48
2019-04-01T04:23:55.500Z,20.20
2019-04-01T04:26:27.759Z,36.68
2019-04-01T04:29:00.037Z,20.53
2019-04-01T04:31:32.375Z,27.87
2019-04-01T04:34:04.769Z,24.57
2019-04-01T04:36:37.115Z,20.65
2019-04-01T04:39:09.378Z,34.40
2019-04-01T04:41:41.646Z,20.08
2019-04-01T04:44:13.780Z,21.77
2019-04-01T04:46:45.982Z,20.20
2019-04-01T04:49:18.354Z,22.60
2019-04-01T04:51:50.766Z,21.05
2019-04-01T04:54:22.965Z,21.10
2019-04-01T04:56:55.139Z,20.05
2019-04-01T04:59:27.229Z,24.25
2019-04-01T05:01:59.378Z,18.77
2019-04-01T05:04:31.840Z,17.25
2019-04-01T05:07:04.228Z,18.35
2019-04-01T05:09:36.599Z,20.30
2019-04-01T05:12:08.791Z,20.05
2019-04-01T05:14:40.887Z,21.67
2019-04-01T05:17:13.216Z,18.25
2019-04-01T05:19:45.474Z,18.10
2019-04-01T05:22:17.650Z,22.10
2019-04-01T05:24:49.901Z,16.67
2019-04-01T05:27:22.597Z,20.30
2019-04-01T05:29:55.671Z,17.07
2019-04-01T05:32:28.447Z,17.87
2019-04-01T05:35:00.983Z,19.67
2019-04-01T05:37:33.481Z,19.25
2019-04-01T05:40:06.644Z,19.85
2019-04-01T05:42:40.060Z,21.33
2019-04-01T05:45:12.243Z,19.23
2019-04-01T05:47:45.672Z,18.25
2019-04-01T05:50:17.950Z,20.00
2019-04-01T05:52:50.420Z,22.25
2019-04-01T05:55:22.990Z,21.35
2019-04-01T05:57:55.279Z,19.65
2019-04-01T06:00:28.654Z,21.75
2019-04-01T06:03:01.090Z,21.57
2019-04-01T06:05:33.674Z,21.25
2019-04-01T06:08:07.069Z,22.70
2019-04-01T06:10:39.581Z,20.80
2019-04-01T06:13:11.948Z,22.60
2019-04-01T06:15:44.177Z,20.90
2019-04-01T06:18:16.552Z,19.52
2019-04-01T06:20:48.675Z,25.17
2019-04-01T06:23:20.894Z,21.85
2019-04-01T06:25:53.275Z,29.47
2019-04-01T06:28:25.570Z,24.65
2019-04-01T06:30:57.826Z,24.60
2019-04-01T06:33:30.620Z,20.30
2019-04-01T06:36:02.857Z,20.97
2019-04-01T06:38:35.005Z,24.23
2019-04-01T06:41:07.064Z,20.15
2019-04-01T06:43:39.092Z,24.07
2019-04-01T06:46:11.326Z,20.37
2019-04-01T06:48:45.890Z,22.22
2019-04-01T06:51:18.057Z,18.65
2019-04-01T06:53:50.216Z,18.92
2019-04-01T06:56:22.389Z,23.07
2019-04-01T06:58:54.519Z,19.77
2019-04-01T07:01:26.793Z,32.90
2019-04-01T07:03:59.844Z,22.27
2019-04-01T07:06:32.200Z,21.57
2019-04-01T07:09:06.662Z,22.52
2019-04-01T07:11:38.940Z,34.05
2019-04-01T07:14:11.327Z,26.53
2019-04-01T07:16:43.671Z,29.80
2019-04-01T07:19:15.865Z,22.10
2019-04-01T07:21:48.001Z,19.05
2019-04-01T07:24:20.038Z,19.50
2019-04-01T07:26:53.273Z,23.30
2019-04-01T07:29:25.534Z,28.40
2019-04-01T07:31:57.933Z,46.98
2019-04-01T07:34:30.408Z,19.05
2019-04-01T07:37:02.778Z,21.05
2019-04-01T07:39:35.034Z,25.63
2019-04-01T07:42:07.392Z,19.98
2019-04-01T07:44:39.636Z,19.57
2019-04-01T07:47:11.812Z,18.83
2019-04-01T07:49:43.973Z,20.23
2019-04-01T07:52:16.059Z,19.70
2019-04-01T07:54:48.320Z,33.45
2019-04-01T07:57:20.512Z,21.35
2019-04-01T07:59:52.829Z,21.33
2019-04-01T08:02:25.187Z,25.12
2019-04-01T08:04:57.435Z,21.02
2019-04-01T08:07:30.423Z,18.48
2019-04-01T08:10:02.755Z,21.37
2019-04-01T08:12:34.866Z,23.55
2019-04-01T08:15:08.359Z,24.45
2019-04-01T08:17:40.758Z,18.05
2019-04-01T08:20:12.804Z,21.97
2019-04-01T08:22:45.191Z,22.15
2019-04-01T08:25:17.462Z,17.98
2019-04-01T08:27:49.652Z,22.90
2019-04-01T08:30:21.708Z,26.42
2019-04-01T08:32:53.900Z,21.20
2019-04-01T08:35:27.357Z,27.55
2019-04-01T08:37:59.704Z,19.35
2019-04-01T08:40:31.986Z,21.37
2019-04-01T08:43:04.179Z,40.73
2019-04-01T08:45:36.612Z,20.23
2019-04-01T08:48:09.123Z,26.27
2019-04-01T08:50:41.325Z,20.70
2019-04-01T08:53:13.707Z,19.17
2019-04-01T08:55:45.932Z,18.82
2019-04-01T08:58:19.980Z,22.15
2019-04-01T09:00:52.589Z,24.90
2019-04-01T09:03:26.673Z,30.17
2019-04-01T09:05:59.148Z,25.05
2019-04-01T09:08:31.428Z,19.30
2019-04-01T09:11:03.668Z,18.85
2019-04-01T09:13:36.663Z,20.02
2019-04-01T09:16:08.711Z,20.33
2019-04-01T09:18:40.884Z,20.00
2019-04-01T09:21:13.311Z,22.03
2019-04-01T09:23:45.684Z,20.15
2019-04-01T09:26:17.935Z,19.73
2019-04-01T09:28:50.222Z,20.50
2019-04-01T09:31:22.259Z,30.67
2019-04-01T09:33:54.559Z,26.25
2019-04-01T09:36:26.917Z,23.50
2019-04-01T09:39:00.417Z,18.13
2019-04-01T09:41:33.989Z,22.37
2019-04-01T09:44:07.311Z,20.23
2019-04-01T09:46:39.657Z,18.42
2019-04-01T09:49:12.021Z,20.60
2019-04-01T09:51:48.736Z,27.22
2019-04-01T09:54:17.709Z,22.67
2019-04-01T09:56:49.953Z,18.32
2019-04-01T09:59:22.157Z,18.80
2019-04-01T10:01:54.837Z,21.82
2019-04-01T10:04:27.125Z,24.90
2019-04-01T10:06:59.440Z,23.80
2019-04-01T10:09:34.851Z,21.70
2019-04-01T10:12:07.232Z,27.37
2019-04-01T10:14:39.698Z,42.67
2019-04-01T10:17:24.504Z,31.12
2019-04-01T10:22:44.302Z,22.65
2019-04-01T10:25:16.659Z,21.97
2019-04-01T10:27:48.858Z,29.77
2019-04-01T10:30:22.753Z,28.02
2019-04-01T10:32:54.992Z,22.10
2019-04-01T10:35:27.189Z,20.92
2019-04-01T10:37:59.741Z,25.95
2019-04-01T10:40:33.247Z,25.48
2019-04-01T10:43:05.640Z,32.42
2019-04-01T10:45:37.822Z,23.25
2019-04-01T10:48:10.117Z,25.23
2019-04-01T10:50:42.812Z,27.37
2019-04-01T10:53:15.136Z,28.85
2019-04-01T10:55:47.501Z,24.67
2019-04-01T10:58:19.586Z,30.68
2019-04-01T11:00:51.760Z,28.40
2019-04-01T11:03:24.127Z,22.30
2019-04-01T11:05:56.368Z,27.98
2019-04-01T11:08:28.522Z,38.73
2019-04-01T11:11:00.971Z,39.78
2019-04-01T11:13:33.129Z,26.97
2019-04-01T11:16:05.426Z,31.62
2019-04-01T11:18:37.588Z,27.87
2019-04-01T11:21:09.703Z,27.67
2019-04-01T11:23:41.984Z,39.23
2019-04-01T11:26:14.073Z,37.43
2019-04-01T11:28:46.403Z,45.05
2019-04-01T11:31:18.755Z,72.87
2019-04-01T11:33:51.168Z,90.63
2019-04-01T11:36:23.428Z,96.03
2019-04-01T11:38:56.019Z,94.28
2019-04-01T11:41:28.354Z,73.35
2019-04-01T11:44:01.623Z,69.17
2019-04-01T11:46:33.842Z,59.08
2019-04-01T11:49:06.207Z,59.08
2019-04-01T11:51:40.047Z,66.85
2019-04-01T11:54:12.024Z,64.70
2019-04-01T11:56:44.127Z,53.98
2019-04-01T11:59:16.202Z,50.38
2019-04-01T12:01:48.531Z,41.90
2019-04-01T12:04:21.889Z,41.70
2019-04-01T12:06:54.201Z,36.13
2019-04-01T12:09:27.796Z,41.73
2019-04-01T12:12:00.501Z,39.75
2019-04-01T12:14:32.871Z,44.00
2019-04-01T12:17:05.057Z,44.60
2019-04-01T12:19:37.296Z,44.55
2019-04-01T12:22:09.331Z,36.98
2019-04-01T12:24:41.661Z,62.73
2019-04-01T12:27:13.918Z,53.45
2019-04-01T12:29:48.239Z,40.50
2019-04-01T12:32:20.661Z,38.37
2019-04-01T12:34:53.253Z,46.40
2019-04-01T12:37:25.646Z,56.88
2019-04-01T12:39:58.046Z,55.12
2019-04-01T12:42:30.521Z,38.83
2019-04-01T12:45:02.676Z,43.70
2019-04-01T12:47:34.971Z,40.33
2019-04-01T12:50:07.421Z,42.43
2019-04-01T12:52:39.722Z,43.20
2019-04-01T12:55:13.095Z,42.90
2019-04-01T12:57:48.190Z,46.83
2019-04-01T13:00:18.675Z,45.20
2019-04-01T13:02:50.969Z,51.35
2019-04-01T13:05:23.481Z,43.80
2019-04-01T13:07:55.953Z,44.90
2019-04-01T13:10:28.124Z,44.25
2019-04-01T13:13:00.487Z,43.98
2019-04-01T13:15:33.537Z,44.48
2019-04-01T13:18:05.718Z,41.18
2019-04-01T13:20:38.521Z,40.30
2019-04-01T13:23:10.868Z,49.23
2019-04-01T13:25:42.963Z,44.23
2019-04-01T13:28:15.420Z,45.05
2019-04-01T13:30:47.575Z,50.40
2019-04-01T13:33:19.749Z,52.10
2019-04-01T13:35:52.690Z,47.88
2019-04-01T13:38:25.218Z,44.00
2019-04-01T13:40:57.691Z,50.50
2019-04-01T13:43:30.498Z,57.03
2019-04-01T13:46:03.069Z,52.80
2019-04-01T13:48:35.310Z,47.58
2019-04-01T13:51:07.497Z,53.17
2019-04-01T13:53:39.770Z,58.92
2019-04-01T13:56:12.669Z,45.20
2019-04-01T13:58:45.113Z,38.70
2019-04-01T14:01:17.174Z,40.30
2019-04-01T14:03:49.443Z,36.50
2019-04-01T14:06:21.478Z,39.37
2019-04-01T14:08:53.766Z,40.05
2019-04-01T14:11:25.812Z,44.95
2019-04-01T14:13:58.147Z,44.73
2019-04-01T14:16:30.422Z,41.95
2019-04-01T14:19:02.975Z,40.40
2019-04-01T14:21:35.104Z,41.80
2019-04-01T14:24:07.191Z,41.70
2019-04-01T14:26:40.252Z,43.98
2019-04-01T14:29:16.347Z,47.80
2019-04-01T14:31:46.885Z,46.63
2019-04-01T14:34:23.495Z,42.03
2019-04-01T14:36:52.820Z,50.35
2019-04-01T14:39:25.026Z,49.70
2019-04-01T14:41:59.952Z,47.00
2019-04-01T14:44:32.317Z,47.25
2019-04-01T14:47:04.541Z,41.35
2019-04-01T14:49:36.832Z,41.25
2019-04-01T14:52:08.976Z,64.80
2019-04-01T14:54:41.216Z,45.28
2019-04-01T14:57:13.536Z,55.38
2019-04-01T14:59:46.051Z,51.03
2019-04-01T15:02:18.441Z,37.57
2019-04-01T15:04:50.737Z,88.10
2019-04-01T15:07:23.011Z,39.75
2019-04-01T15:09:55.193Z,44.35
2019-04-01T15:12:27.337Z,48.80
2019-04-01T15:14:59.823Z,47.10
2019-04-01T15:17:31.915Z,40.35
2019-04-01T15:20:04.327Z,37.58
2019-04-01T15:22:36.560Z,38.58
2019-04-01T15:25:09.337Z,59.07
2019-04-01T15:27:41.396Z,50.33
2019-04-01T15:30:14.942Z,54.85
2019-04-01T15:32:47.212Z,53.00
2019-04-01T15:35:19.376Z,49.70
2019-04-01T15:37:52.445Z,51.60
2019-04-01T15:40:24.783Z,48.52
2019-04-01T15:42:58.232Z,55.52
2019-04-01T15:45:31.404Z,72.92
2019-04-01T15:48:03.538Z,58.70
2019-04-01T15:50:35.617Z,59.53
2019-04-01T15:53:07.646Z,64.47
2019-04-01T15:55:39.835Z,71.65
2019-04-01T15:58:11.856Z,70.45
2019-04-01T16:00:43.954Z,64.67
2019-04-01T16:03:16.097Z,54.77
2019-04-01T16:05:48.283Z,49.98
2019-04-01T16:08:20.567Z,51.40
2019-04-01T16:10:52.660Z,45.30
2019-04-01T16:13:24.894Z,47.13
2019-04-01T16:15:57.321Z,61.83
2019-04-01T16:18:30.957Z,59.13
2019-04-01T16:21:02.966Z,64.45
2019-04-01T16:23:35.278Z,61.05
2019-04-01T16:26:09.497Z,57.15
2019-04-01T16:28:40.819Z,53.23
2019-04-01T16:31:13.086Z,52.73
2019-04-01T16:33:45.330Z,51.20
2019-04-01T16:36:17.512Z,51.20
2019-04-01T16:38:49.719Z,63.20
2019-04-01T16:41:22.164Z,56.18
2019-04-01T16:43:55.580Z,50.35
2019-04-01T16:46:27.835Z,40.88
2019-04-01T16:49:00.054Z,37.33
2019-04-01T16:51:32.249Z,35.70
2019-04-01T16:54:05.221Z,39.05
2019-04-01T16:56:38.043Z,39.95
2019-04-01T16:59:10.402Z,38.38
2019-04-01T17:01:43.187Z,43.68
2019-04-01T17:04:17.076Z,39.65
2019-04-01T17:06:49.565Z,48.90
2019-04-01T17:09:22.182Z,43.57
2019-04-01T17:11:54.553Z,38.58
2019-04-01T17:14:28.635Z,42.17
2019-04-01T17:17:00.643Z,42.80
2019-04-01T17:19:32.723Z,40.08
2019-04-01T17:22:05.193Z,38.88
2019-04-01T17:24:37.380Z,47.75
2019-04-01T17:27:12.011Z,107.83
2019-04-01T17:29:45.257Z,121.42
2019-04-01T17:32:17.443Z,76.70
2019-04-01T17:34:49.500Z,77.72
2019-04-01T17:37:21.551Z,62.70
2019-04-01T17:39:54.762Z,68.62
2019-04-01T17:42:27.036Z,90.45
2019-04-01T17:45:04.668Z,69.07
2019-04-01T17:47:37.382Z,72.30
2019-04-01T17:50:09.754Z,85.83
2019-04-01T17:52:41.929Z,58.05
2019-04-01T17:55:14.095Z,63.00
2019-04-01T17:57:46.526Z,56.90
2019-04-01T18:00:20.125Z,53.10
2019-04-01T18:02:52.515Z,56.37
2019-04-01T18:05:24.843Z,53.13
2019-04-01T18:07:57.228Z,52.53
2019-04-01T18:10:29.519Z,57.75
2019-04-01T18:13:01.853Z,57.05
2019-04-01T18:15:34.076Z,56.00
2019-04-01T18:18:06.424Z,41.45
2019-04-01T18:20:38.693Z,43.10
2019-04-01T18:23:11.174Z,39.63
2019-04-01T18:25:43.374Z,36.42
2019-04-01T18:28:15.485Z,36.45
2019-04-01T18:30:47.765Z,30.92
2019-04-01T18:33:21.040Z,49.23
2019-04-01T18:35:54.246Z,28.97
2019-04-01T18:38:26.870Z,32.35
2019-04-01T18:40:59.292Z,35.75
2019-04-01T18:43:31.571Z,22.52
2019-04-01T18:46:04.078Z,26.68
2019-04-01T18:48:36.428Z,30.30
2019-04-01T18:51:08.666Z,24.85
2019-04-01T18:53:40.833Z,35.70
2019-04-01T18:56:13.057Z,21.30
2019-04-01T18:58:45.271Z,18.62
2019-04-01T19:01:17.417Z,18.37
2019-04-01T19:03:49.653Z,92.12
2019-04-01T19:06:21.864Z,20.30
2019-04-01T19:08:54.180Z,21.95
2019-04-01T19:11:26.493Z,18.27
2019-04-01T19:13:58.625Z,20.63
2019-04-01T19:16:31.381Z,24.70
2019-04-01T19:19:03.913Z,20.77
2019-04-01T19:21:36.992Z,24.47
2019-04-01T19:24:09.383Z,24.80
2019-04-01T19:26:41.457Z,24.98
2019-04-01T19:29:13.621Z,24.70
2019-04-01T19:31:45.768Z,30.40
2019-04-01T19:34:18.495Z,24.73
2019-04-01T19:36:50.932Z,46.92
2019-04-01T19:39:23.233Z,21.65
2019-04-01T19:41:55.553Z,25.00
2019-04-01T19:44:27.851Z,27.05
2019-04-01T19:47:00.264Z,27.90
2019-04-01T19:49:33.137Z,29.10
2019-04-01T19:52:05.683Z,37.60
2019-04-01T19:54:37.996Z,46.63
2019-04-01T19:57:10.252Z,30.45
2019-04-01T19:59:42.393Z,31.62
2019-04-01T20:02:14.512Z,32.80
2019-04-01T20:04:46.820Z,32.45
2019-04-01T20:07:18.849Z,35.78
2019-04-01T20:09:51.037Z,32.33
2019-04-01T20:12:23.257Z,35.47
2019-04-01T20:14:58.725Z,36.83
2019-04-01T20:17:29.091Z,41.63
2019-04-01T20:20:02.533Z,34.60
2019-04-01T20:22:35.125Z,40.65
2019-04-01T20:25:09.317Z,38.13
2019-04-01T20:27:41.638Z,37.67
2019-04-01T20:30:13.820Z,39.50
2019-04-01T20:32:45.849Z,40.03
2019-04-01T20:35:23.590Z,42.50
2019-04-01T20:37:51.586Z,41.88
2019-04-01T20:40:24.313Z,49.10
2019-04-01T20:42:57.014Z,48.48
2019-04-01T20:45:29.286Z,42.83
2019-04-01T20:48:01.677Z,42.27
2019-04-01T20:50:33.981Z,41.15
2019-04-01T20:53:06.218Z,43.17
2019-04-01T20:55:48.027Z,46.98
2019-04-01T20:58:12.020Z,47.38
2019-04-01T21:00:44.337Z,49.80
2019-04-01T21:03:16.500Z,52.30
2019-04-01T21:05:48.485Z,48.73
2019-04-01T21:08:20.761Z,46.18
2019-04-01T21:10:53.088Z,45.63
2019-04-01T21:13:25.096Z,47.43
2019-04-01T21:15:59.026Z,50.80
2019-04-01T21:18:31.122Z,55.58
2019-04-01T21:21:03.544Z,48.98
2019-04-01T21:23:36.071Z,47.45
2019-04-01T21:26:08.611Z,46.35
2019-04-01T21:28:40.749Z,45.38
2019-04-01T21:31:13.115Z,44.67
2019-04-01T21:33:45.327Z,44.90
2019-04-01T21:36:17.611Z,47.35
2019-04-01T21:38:49.746Z,49.85
2019-04-01T21:41:21.937Z,46.77
2019-04-01T21:43:54.178Z,48.45
2019-04-01T21:46:26.954Z,42.87
2019-04-01T21:48:59.525Z,47.33
2019-04-01T21:51:33.000Z,44.80
2019-04-01T21:54:05.502Z,46.65
2019-04-01T21:56:37.842Z,46.45
2019-04-01T21:59:10.070Z,47.78
2019-04-01T22:01:42.156Z,48.08
2019-04-01T22:04:14.179Z,55.48
2019-04-01T22:06:46.378Z,56.08
2019-04-01T22:09:18.610Z,49.05
2019-04-01T22:11:50.882Z,47.30
2019-04-01T22:14:23.123Z,48.20
2019-04-01T22:16:55.420Z,46.92
2019-04-01T22:19:28.562Z,50.20
2019-04-01T22:22:00.926Z,45.85
2019-04-01T22:24:33.426Z,45.55
2019-04-01T22:27:05.762Z,50.28
2019-04-01T22:29:39.597Z,48.28
2019-04-01T22:32:13.056Z,54.93
2019-04-01T22:34:45.211Z,45.80
2019-04-01T22:37:26.729Z,46.55
2019-04-01T22:39:50.767Z,52.17
2019-04-01T22:42:22.842Z,52.70
2019-04-01T22:44:55.999Z,55.80
2019-04-01T22:47:28.310Z,51.15
2019-04-01T22:50:00.849Z,47.80
2019-04-01T22:52:33.204Z,51.83
2019-04-01T22:55:06.417Z,46.92
2019-04-01T22:57:38.684Z,49.53
2019-04-01T23:00:10.954Z,47.93
2019-04-01T23:02:44.489Z,50.52
2019-04-01T23:05:16.742Z,50.67
2019-04-01T23:07:48.990Z,50.78
2019-04-01T23:10:21.414Z,47.80
2019-04-01T23:12:53.740Z,48.48
2019-04-01T23:15:25.982Z,51.40
2019-04-01T23:17:58.684Z,45.20
2019-04-01T23:20:30.901Z,43.73
2019-04-01T23:23:03.309Z,41.70
2019-04-01T23:25:35.527Z,41.33
2019-04-01T23:28:08.893Z,39.53
2019-04-01T23:30:41.240Z,42.38
2019-04-01T23:33:13.311Z,42.03
2019-04-01T23:35:45.659Z,50.08
2019-04-01T23:38:18.173Z,51.53
2019-04-01T23:40:50.452Z,51.90
2019-04-01T23:43:22.708Z,38.50
2019-04-01T23:45:55.002Z,36.93
2019-04-01T23:48:27.210Z,34.50
2019-04-01T23:50:59.711Z,35.33
2019-04-01T23:53:32.197Z,36.08
2019-04-01T23:56:05.353Z,36.48
2019-04-01T23:58:37.641Z,37.20
